Leonard, Michigan
Current Conditions -  °F | °C
As of 10:33 AM on Monday 22 Dec 2014 (Local Time) from KD95 Reporting Station
Clear Clear  
Wind Chill: 24°   Ceiling: Unl
Heat Index: 32°   Visibility: 10mi
Dew Point: 26°   Wind: 9mph
Humidity: 79%   Direction: 150°SSE
Pressure: 30.09"   Gusts: NA
Location:  42.87°N, 83.14°W
Report Text: KD95 221533Z AUTO 15008KT 10SM CLR 00/M03 A3009 RMK AO2 T00001032
Loading
Personal Weather Stations






























Interactive Weather Map New forecast layout! Learn more

10-Day Weather Forecast

Advertisements
Track Severe Weather on mobile